createdAt,value
2018-03-18T00:00:12.416Z,56.70
2018-03-18T00:02:42.125Z,78.13
2018-03-18T00:05:11.267Z,62.37
2018-03-18T00:07:40.453Z,73.20
2018-03-18T00:10:10.006Z,78.97
2018-03-18T00:12:39.139Z,72.43
2018-03-18T00:15:08.365Z,75.93
2018-03-18T00:17:37.510Z,81.60
2018-03-18T00:20:06.674Z,234.87
2018-03-18T00:22:35.872Z,101.87
2018-03-18T00:25:05.019Z,102.30
2018-03-18T00:27:34.178Z,134.43
2018-03-18T00:30:03.381Z,127.00
2018-03-18T00:32:32.545Z,118.23
2018-03-18T00:35:01.682Z,128.13
2018-03-18T00:37:30.866Z,122.40
2018-03-18T00:40:00.012Z,154.67
2018-03-18T00:42:29.179Z,126.53
2018-03-18T00:44:58.319Z,160.37
2018-03-18T00:47:27.474Z,127.90
2018-03-18T00:49:56.650Z,143.43
2018-03-18T00:52:25.833Z,116.97
2018-03-18T00:54:54.978Z,112.37
2018-03-18T00:57:24.125Z,131.30
2018-03-18T00:59:53.320Z,140.93
2018-03-18T01:02:22.544Z,129.10
2018-03-18T01:04:51.685Z,165.37
2018-03-18T01:07:20.822Z,132.50
2018-03-18T01:09:49.987Z,112.50
2018-03-18T01:12:19.658Z,132.07
2018-03-18T01:14:48.813Z,128.03
2018-03-18T01:17:18.119Z,126.33
2018-03-18T01:19:47.262Z,124.10
2018-03-18T01:22:16.403Z,126.70
2018-03-18T01:24:45.614Z,123.33
2018-03-18T01:27:14.769Z,114.37
2018-03-18T01:29:43.910Z,118.00
2018-03-18T01:32:13.086Z,113.87
2018-03-18T01:34:42.222Z,111.00
2018-03-18T01:37:11.363Z,100.37
2018-03-18T01:39:40.534Z,112.17
2018-03-18T01:42:09.677Z,108.27
2018-03-18T01:44:38.844Z,120.37
2018-03-18T01:47:08.369Z,119.90
2018-03-18T01:49:37.513Z,110.60
2018-03-18T01:52:06.675Z,105.97
2018-03-18T01:54:35.880Z,98.53
2018-03-18T01:57:05.057Z,121.43
2018-03-18T01:59:34.253Z,119.70
2018-03-18T02:02:03.389Z,157.30
2018-03-18T02:04:32.557Z,141.77
2018-03-18T02:07:01.692Z,122.30
2018-03-18T02:09:30.834Z,117.77
2018-03-18T02:12:00.020Z,126.80
2018-03-18T02:14:29.157Z,131.33
2018-03-18T02:16:58.302Z,131.93
2018-03-18T02:19:27.494Z,126.73
2018-03-18T02:21:56.646Z,118.80
2018-03-18T02:24:25.800Z,105.67
2018-03-18T02:26:54.982Z,107.07
2018-03-18T02:29:24.166Z,108.63
2018-03-18T02:31:53.323Z,143.80
2018-03-18T02:34:22.482Z,96.43
2018-03-18T02:36:51.666Z,100.17
2018-03-18T02:39:20.805Z,130.90
2018-03-18T02:41:49.989Z,125.57
2018-03-18T02:44:19.128Z,152.77
2018-03-18T02:46:48.271Z,112.80
2018-03-18T02:49:17.527Z,126.80
2018-03-18T02:51:46.618Z,117.67
2018-03-18T02:54:15.785Z,111.10
2018-03-18T02:56:44.967Z,119.30
2018-03-18T02:59:14.118Z,108.03
2018-03-18T03:01:43.311Z,175.37
2018-03-18T03:04:12.463Z,103.47
2018-03-18T03:06:41.608Z,130.97
2018-03-18T03:09:10.780Z,162.30
2018-03-18T03:11:39.931Z,104.17
2018-03-18T03:14:09.091Z,117.97
2018-03-18T03:16:38.265Z,100.63
2018-03-18T03:19:07.422Z,89.00
2018-03-18T03:21:36.566Z,83.57
2018-03-18T03:24:05.750Z,90.23
2018-03-18T03:26:34.901Z,85.50
2018-03-18T03:29:04.042Z,79.53
2018-03-18T03:31:33.220Z,80.03
2018-03-18T03:34:02.357Z,131.33
2018-03-18T03:36:31.509Z,96.93
2018-03-18T03:39:00.686Z,76.97
2018-03-18T03:41:29.824Z,75.87
2018-03-18T03:43:58.971Z,74.20
2018-03-18T03:46:28.132Z,66.77
2018-03-18T03:48:57.279Z,63.77
2018-03-18T03:51:26.417Z,65.90
2018-03-18T03:53:55.605Z,64.00
2018-03-18T03:56:24.745Z,58.40
2018-03-18T03:58:53.909Z,65.00
2018-03-18T04:01:23.107Z,58.00
2018-03-18T04:03:52.242Z,63.07
2018-03-18T04:06:21.440Z,62.17
2018-03-18T04:08:50.590Z,57.80
2018-03-18T04:11:19.790Z,54.27
2018-03-18T04:13:48.966Z,57.23
2018-03-18T04:16:18.117Z,52.77
2018-03-18T04:18:47.250Z,54.23
2018-03-18T04:21:16.416Z,64.37
2018-03-18T04:23:45.561Z,59.90
2018-03-18T04:26:14.714Z,57.80
2018-03-18T04:28:43.898Z,50.53
2018-03-18T04:31:13.033Z,53.73
2018-03-18T04:33:42.210Z,51.23
2018-03-18T04:36:11.351Z,52.20
2018-03-18T04:38:40.491Z,50.00
2018-03-18T04:41:09.653Z,50.60
2018-03-18T04:43:38.797Z,53.17
2018-03-18T04:46:07.954Z,53.13
2018-03-18T04:48:37.129Z,45.43
2018-03-18T04:51:06.280Z,49.43
2018-03-18T04:53:35.648Z,52.63
2018-03-18T04:56:04.798Z,47.67
2018-03-18T04:58:34.049Z,49.83
2018-03-18T05:01:03.185Z,57.83
2018-03-18T05:03:32.365Z,48.67
2018-03-18T05:06:01.507Z,47.50
2018-03-18T05:08:30.701Z,45.83
2018-03-18T05:10:59.846Z,44.03
2018-03-18T05:13:28.997Z,45.10
2018-03-18T05:15:58.175Z,44.53
2018-03-18T05:18:27.351Z,41.30
2018-03-18T05:20:56.494Z,40.97
2018-03-18T05:23:25.638Z,43.87
2018-03-18T05:25:54.812Z,45.00
2018-03-18T05:28:23.983Z,52.53
2018-03-18T05:30:53.128Z,41.57
2018-03-18T05:33:22.270Z,39.97
2018-03-18T05:35:51.426Z,39.57
2018-03-18T05:38:20.566Z,44.60
2018-03-18T05:40:49.701Z,41.33
2018-03-18T05:43:18.915Z,40.83
2018-03-18T05:45:48.078Z,57.30
2018-03-18T05:48:17.258Z,40.60
2018-03-18T05:50:46.437Z,46.23
2018-03-18T05:53:15.569Z,41.40
2018-03-18T05:55:44.741Z,39.73
2018-03-18T05:58:13.881Z,40.37
2018-03-18T06:00:43.032Z,40.13
2018-03-18T06:03:12.189Z,37.13
2018-03-18T06:05:41.335Z,36.00
2018-03-18T06:08:10.549Z,38.27
2018-03-18T06:10:39.692Z,40.77
2018-03-18T06:13:08.826Z,38.40
2018-03-18T06:15:38.000Z,37.90
2018-03-18T06:18:07.141Z,36.80
2018-03-18T06:20:36.288Z,36.67
2018-03-18T06:23:05.465Z,41.90
2018-03-18T06:25:34.662Z,42.63
2018-03-18T06:28:03.851Z,38.93
2018-03-18T06:30:33.030Z,41.97
2018-03-18T06:33:02.205Z,41.83
2018-03-18T06:35:31.348Z,36.87
2018-03-18T06:38:00.498Z,39.53
2018-03-18T06:40:29.681Z,36.50
2018-03-18T06:42:58.838Z,37.00
2018-03-18T06:45:27.983Z,33.10
2018-03-18T06:47:57.150Z,35.00
2018-03-18T06:50:26.308Z,38.07
2018-03-18T06:52:55.445Z,41.80
2018-03-18T06:55:24.607Z,43.27
2018-03-18T06:57:53.757Z,41.70
2018-03-18T07:00:22.917Z,48.83
2018-03-18T07:02:52.099Z,38.83
2018-03-18T07:05:21.265Z,37.60
2018-03-18T07:07:50.863Z,40.40
2018-03-18T07:10:19.999Z,36.80
2018-03-18T07:12:49.153Z,48.33
2018-03-18T07:15:18.338Z,40.40
2018-03-18T07:17:47.480Z,38.87
2018-03-18T07:20:16.618Z,41.77
2018-03-18T07:22:46.254Z,37.23
2018-03-18T07:25:15.393Z,47.57
2018-03-18T07:27:44.517Z,37.27
2018-03-18T07:30:13.700Z,42.00
2018-03-18T07:32:42.837Z,42.30
2018-03-18T07:35:11.979Z,39.00
2018-03-18T07:37:41.149Z,41.37
2018-03-18T07:40:10.303Z,46.90
2018-03-18T07:42:39.447Z,39.93
2018-03-18T07:45:08.618Z,41.53
2018-03-18T07:47:37.754Z,43.83
2018-03-18T07:50:06.890Z,41.00
2018-03-18T07:52:36.069Z,42.10
2018-03-18T07:55:05.222Z,40.20
2018-03-18T07:57:34.373Z,39.80
2018-03-18T08:00:03.639Z,42.67
2018-03-18T08:02:32.770Z,43.60
2018-03-18T08:05:01.917Z,42.07
2018-03-18T08:07:31.135Z,43.80
2018-03-18T08:10:00.264Z,46.27
2018-03-18T08:12:29.420Z,45.20
2018-03-18T08:14:58.602Z,45.17
2018-03-18T08:17:27.744Z,43.33
2018-03-18T08:19:56.917Z,44.40
2018-03-18T08:22:26.045Z,41.57
2018-03-18T08:24:55.244Z,42.93
2018-03-18T08:27:24.385Z,41.70
2018-03-18T08:29:53.524Z,43.40
2018-03-18T08:32:22.697Z,41.50
2018-03-18T08:34:52.064Z,46.83
2018-03-18T08:37:21.205Z,41.67
2018-03-18T08:39:50.373Z,42.83
2018-03-18T08:42:25.489Z,44.87
2018-03-18T08:44:54.653Z,44.97
2018-03-18T08:47:23.821Z,39.47
2018-03-18T08:49:52.956Z,42.43
2018-03-18T08:52:22.173Z,43.97
2018-03-18T08:54:51.304Z,39.53
2018-03-18T08:57:20.445Z,43.77
2018-03-18T08:59:49.593Z,42.83
2018-03-18T09:02:18.751Z,41.87
2018-03-18T09:04:47.923Z,44.70
2018-03-18T09:07:17.098Z,41.87
2018-03-18T09:09:46.246Z,42.77
2018-03-18T09:12:15.378Z,40.80
2018-03-18T09:14:44.538Z,39.83
2018-03-18T09:17:13.678Z,37.00
2018-03-18T09:19:42.816Z,36.90
2018-03-18T09:22:11.996Z,34.80
2018-03-18T09:24:41.136Z,32.80
2018-03-18T09:27:10.338Z,32.10
2018-03-18T09:29:39.472Z,33.43
2018-03-18T09:32:08.602Z,30.90
2018-03-18T09:34:37.799Z,32.63
2018-03-18T09:37:06.975Z,32.53
2018-03-18T09:39:36.146Z,32.70
2018-03-18T09:42:05.282Z,44.13
2018-03-18T09:44:34.451Z,28.73
2018-03-18T09:47:03.658Z,27.73
2018-03-18T09:49:32.873Z,26.80
2018-03-18T09:52:01.987Z,27.97
2018-03-18T09:54:31.247Z,26.83
2018-03-18T09:57:00.497Z,27.30
2018-03-18T09:59:29.654Z,23.80
2018-03-18T10:01:59.014Z,22.70
2018-03-18T10:04:28.489Z,24.83
2018-03-18T10:06:57.651Z,24.13
2018-03-18T10:09:26.864Z,30.60
2018-03-18T10:11:56.074Z,24.07
2018-03-18T10:14:25.233Z,21.87
2018-03-18T10:16:54.393Z,24.27
2018-03-18T10:19:23.540Z,23.47
2018-03-18T10:21:52.700Z,22.27
2018-03-18T10:24:21.838Z,21.40
2018-03-18T10:26:50.978Z,22.57
2018-03-18T10:29:20.155Z,22.70
2018-03-18T10:31:49.289Z,23.13
2018-03-18T10:34:18.425Z,22.47
2018-03-18T10:36:47.595Z,22.90
2018-03-18T10:39:16.747Z,22.37
2018-03-18T10:41:45.978Z,21.97
2018-03-18T10:44:15.138Z,23.70
2018-03-18T10:46:44.286Z,20.50
2018-03-18T10:49:13.472Z,23.90
2018-03-18T10:51:42.622Z,21.10
2018-03-18T10:54:11.806Z,22.33
2018-03-18T10:56:40.949Z,23.63
2018-03-18T10:59:10.666Z,24.57
2018-03-18T11:01:45.477Z,25.77
2018-03-18T11:04:17.597Z,23.87
2018-03-18T11:06:46.776Z,24.90
2018-03-18T11:09:15.916Z,26.10
2018-03-18T11:11:45.081Z,21.17
2018-03-18T11:14:14.249Z,23.70
2018-03-18T11:16:43.390Z,24.17
2018-03-18T11:19:12.548Z,25.27
2018-03-18T11:21:41.698Z,24.40
2018-03-18T11:24:10.838Z,23.97
2018-03-18T11:26:40.018Z,23.40
2018-03-18T11:29:09.163Z,22.27
2018-03-18T11:31:38.298Z,21.60
2018-03-18T11:34:07.461Z,25.47
2018-03-18T11:36:36.618Z,25.70
2018-03-18T11:39:05.770Z,24.80
2018-03-18T11:41:34.945Z,24.30
2018-03-18T11:44:04.087Z,25.50
2018-03-18T11:46:33.227Z,25.77
2018-03-18T11:49:02.400Z,25.97
2018-03-18T11:51:31.553Z,24.37
2018-03-18T11:54:01.271Z,25.87
2018-03-18T11:56:30.465Z,23.90
2018-03-18T11:58:59.616Z,27.40
2018-03-18T12:01:28.894Z,23.77
2018-03-18T12:03:58.035Z,24.73
2018-03-18T12:06:27.187Z,25.87
2018-03-18T12:08:58.106Z,23.90
2018-03-18T12:11:27.256Z,27.93
2018-03-18T12:13:56.393Z,24.67
2018-03-18T12:16:25.567Z,24.73
2018-03-18T12:18:54.714Z,25.00
2018-03-18T12:21:23.860Z,21.70
2018-03-18T12:23:53.039Z,25.53
2018-03-18T12:26:22.186Z,25.47
2018-03-18T12:28:51.326Z,22.67
2018-03-18T12:31:20.494Z,23.37
2018-03-18T12:33:49.647Z,26.13
2018-03-18T12:36:18.792Z,25.03
2018-03-18T12:38:47.934Z,22.83
2018-03-18T12:41:17.080Z,23.37
2018-03-18T12:43:46.242Z,24.80
2018-03-18T12:46:15.377Z,37.10
2018-03-18T12:48:44.510Z,28.00
2018-03-18T12:51:13.756Z,24.00
2018-03-18T12:53:42.892Z,25.20
2018-03-18T12:56:12.018Z,26.10
2018-03-18T12:58:41.202Z,26.17
2018-03-18T13:01:10.338Z,24.50
2018-03-18T13:03:39.481Z,25.50
2018-03-18T13:06:08.653Z,20.60
2018-03-18T13:08:37.802Z,24.03
2018-03-18T13:11:06.941Z,26.27
2018-03-18T13:13:36.122Z,25.43
2018-03-18T13:16:05.258Z,24.07
2018-03-18T13:18:34.409Z,25.90
2018-03-18T13:21:03.604Z,26.63
2018-03-18T13:23:32.780Z,25.97
2018-03-18T13:26:01.961Z,25.17
2018-03-18T13:28:31.120Z,25.37
2018-03-18T13:31:00.323Z,22.00
2018-03-18T13:33:29.457Z,22.97
2018-03-18T13:35:58.585Z,26.60
2018-03-18T13:38:27.744Z,27.67
2018-03-18T13:40:56.892Z,28.27
2018-03-18T13:43:32.733Z,25.93
2018-03-18T13:46:01.882Z,22.67
2018-03-18T13:48:31.079Z,26.87
2018-03-18T13:51:00.212Z,27.43
2018-03-18T13:53:29.403Z,25.70
2018-03-18T13:55:58.605Z,27.03
2018-03-18T13:58:27.743Z,26.20
2018-03-18T14:00:56.878Z,27.13
2018-03-18T14:03:26.014Z,25.20
2018-03-18T14:05:55.332Z,25.70
2018-03-18T14:08:24.603Z,26.57
2018-03-18T14:10:53.746Z,26.40
2018-03-18T14:13:22.925Z,25.97
2018-03-18T14:15:52.077Z,26.53
2018-03-18T14:18:21.214Z,22.40
2018-03-18T14:20:50.414Z,26.47
2018-03-18T14:23:19.617Z,25.67
2018-03-18T14:25:48.749Z,25.27
2018-03-18T14:28:17.929Z,25.97
2018-03-18T14:30:47.070Z,25.60
2018-03-18T14:33:16.291Z,25.70
2018-03-18T14:35:45.450Z,25.03
2018-03-18T14:38:14.590Z,26.97
2018-03-18T14:40:43.738Z,27.73
2018-03-18T14:43:12.898Z,27.47
2018-03-18T14:45:42.047Z,26.13
2018-03-18T14:48:11.182Z,27.03
2018-03-18T14:50:40.355Z,27.37
2018-03-18T14:53:09.539Z,27.07
2018-03-18T14:55:38.678Z,28.60
2018-03-18T14:58:07.831Z,24.90
2018-03-18T15:00:37.022Z,25.37
2018-03-18T15:03:06.171Z,27.37
2018-03-18T15:05:35.326Z,26.20
2018-03-18T15:08:04.618Z,26.87
2018-03-18T15:10:33.761Z,25.93
2018-03-18T15:13:02.933Z,26.13
2018-03-18T15:15:32.108Z,32.63
2018-03-18T15:18:01.246Z,24.43
2018-03-18T15:20:30.414Z,29.10
2018-03-18T15:22:59.568Z,25.17
2018-03-18T15:25:28.762Z,28.07
2018-03-18T15:27:57.933Z,24.63
2018-03-18T15:30:27.076Z,23.30
2018-03-18T15:32:56.257Z,27.70
2018-03-18T15:35:25.407Z,27.27
2018-03-18T15:37:55.438Z,27.33
2018-03-18T15:40:24.585Z,26.10
2018-03-18T15:42:53.719Z,30.50
2018-03-18T15:45:22.859Z,29.30
2018-03-18T15:47:52.076Z,24.87
2018-03-18T15:50:21.226Z,27.47
2018-03-18T15:52:50.394Z,25.97
2018-03-18T15:55:19.538Z,34.00
2018-03-18T15:57:48.698Z,31.30
2018-03-18T16:00:17.886Z,28.63
2018-03-18T16:02:47.039Z,28.20
2018-03-18T16:05:16.624Z,26.07
2018-03-18T16:07:45.782Z,27.70
2018-03-18T16:10:14.942Z,25.67
2018-03-18T16:12:44.103Z,27.77
2018-03-18T16:15:13.241Z,29.53
2018-03-18T16:17:42.394Z,43.13
2018-03-18T16:20:11.562Z,24.53
2018-03-18T16:22:40.717Z,30.60
2018-03-18T16:25:09.850Z,27.93
2018-03-18T16:27:39.077Z,29.80
2018-03-18T16:30:14.068Z,29.87
2018-03-18T16:32:43.239Z,25.40
2018-03-18T16:35:12.389Z,28.07
2018-03-18T16:37:41.542Z,27.20
2018-03-18T16:40:10.706Z,30.40
2018-03-18T16:42:39.846Z,27.67
2018-03-18T16:45:09.028Z,30.03
2018-03-18T16:47:38.217Z,27.37
2018-03-18T16:50:07.362Z,26.83
2018-03-18T16:52:36.494Z,26.33
2018-03-18T16:55:05.673Z,25.83
2018-03-18T16:57:34.853Z,26.60
2018-03-18T17:00:03.997Z,27.77
2018-03-18T17:02:33.167Z,44.07
2018-03-18T17:05:02.318Z,64.83
2018-03-18T17:07:31.473Z,28.60
2018-03-18T17:10:00.725Z,28.90
2018-03-18T17:12:29.860Z,28.67
2018-03-18T17:14:59.020Z,28.80
2018-03-18T17:17:28.214Z,31.30
2018-03-18T17:19:57.730Z,25.53
2018-03-18T17:22:26.897Z,36.13
2018-03-18T17:24:56.041Z,33.33
2018-03-18T17:27:25.221Z,29.27
2018-03-18T17:29:54.390Z,42.93
2018-03-18T17:32:23.564Z,29.00
2018-03-18T17:34:52.744Z,26.80
2018-03-18T17:37:21.921Z,30.20
2018-03-18T17:39:51.078Z,29.53
2018-03-18T17:42:20.292Z,28.50
2018-03-18T17:47:54.736Z,27.87
2018-03-18T17:50:29.638Z,25.57
2018-03-18T17:53:04.727Z,32.40
2018-03-18T17:55:33.907Z,25.30
2018-03-18T17:58:03.054Z,25.40
2018-03-18T18:00:32.253Z,25.50
2018-03-18T18:03:01.398Z,27.50
2018-03-18T18:05:30.558Z,25.60
2018-03-18T18:07:59.724Z,27.20
2018-03-18T18:10:28.877Z,26.40
2018-03-18T18:12:58.049Z,25.50
2018-03-18T18:15:27.190Z,25.20
2018-03-18T18:17:56.323Z,23.70
2018-03-18T18:20:25.935Z,27.20
2018-03-18T18:22:55.079Z,25.30
2018-03-18T18:25:24.214Z,22.73
2018-03-18T18:27:53.382Z,27.43
2018-03-18T18:30:22.520Z,24.50
2018-03-18T18:32:51.696Z,24.80
2018-03-18T18:35:20.878Z,23.97
2018-03-18T18:37:50.057Z,25.77
2018-03-18T18:40:19.239Z,27.03
2018-03-18T18:42:48.466Z,25.87
2018-03-18T18:45:17.600Z,28.90
2018-03-18T18:47:46.786Z,27.53
2018-03-18T18:50:15.935Z,28.50
2018-03-18T18:52:45.114Z,25.87
2018-03-18T18:55:14.252Z,26.67
2018-03-18T18:57:43.433Z,26.60
2018-03-18T19:00:12.581Z,27.90
2018-03-18T19:02:41.729Z,33.20
2018-03-18T19:05:10.902Z,31.83
2018-03-18T19:07:40.046Z,28.23
2018-03-18T19:10:09.183Z,25.67
2018-03-18T19:12:38.381Z,29.07
2018-03-18T19:15:07.575Z,30.47
2018-03-18T19:17:36.724Z,25.87
2018-03-18T19:20:05.993Z,27.50
2018-03-18T19:22:35.443Z,27.10
2018-03-18T19:25:04.604Z,28.17
2018-03-18T19:27:33.798Z,32.03
2018-03-18T19:30:02.944Z,29.57
2018-03-18T19:32:32.096Z,31.23
2018-03-18T19:35:01.270Z,27.33
2018-03-18T19:37:30.408Z,35.17
2018-03-18T19:39:59.569Z,28.47
2018-03-18T19:42:28.734Z,28.20
2018-03-18T19:44:57.877Z,32.00
2018-03-18T19:47:27.039Z,34.73
2018-03-18T19:49:56.224Z,28.90
2018-03-18T19:52:25.387Z,29.40
2018-03-18T19:54:54.554Z,27.60
2018-03-18T19:57:23.755Z,32.10
2018-03-18T19:59:53.308Z,30.40
2018-03-18T20:02:22.466Z,27.10
2018-03-18T20:04:51.604Z,26.57
2018-03-18T20:07:20.773Z,30.83
2018-03-18T20:09:49.932Z,30.10
2018-03-18T20:12:19.102Z,27.53
2018-03-18T20:14:48.258Z,27.87
2018-03-18T20:17:17.403Z,29.43
2018-03-18T20:19:46.557Z,28.20
2018-03-18T20:22:15.737Z,29.90
2018-03-18T20:24:44.894Z,29.40
2018-03-18T20:27:14.043Z,31.50
2018-03-18T20:29:43.184Z,29.87
2018-03-18T20:32:12.366Z,32.07
2018-03-18T20:34:41.518Z,30.80
2018-03-18T20:37:10.665Z,30.10
2018-03-18T20:39:39.806Z,30.77
2018-03-18T20:42:08.990Z,30.13
2018-03-18T20:44:38.139Z,31.60
2018-03-18T20:47:07.284Z,30.10
2018-03-18T20:49:36.493Z,30.53
2018-03-18T20:52:05.654Z,31.37
2018-03-18T20:54:34.802Z,30.13
2018-03-18T20:57:03.982Z,30.97
2018-03-18T20:59:33.151Z,29.43
2018-03-18T21:02:02.294Z,27.97
2018-03-18T21:04:31.467Z,29.43
2018-03-18T21:07:00.605Z,28.20
2018-03-18T21:09:29.759Z,29.73
2018-03-18T21:11:58.933Z,30.43
2018-03-18T21:14:28.094Z,28.03
2018-03-18T21:16:57.246Z,29.00
2018-03-18T21:19:26.426Z,28.23
2018-03-18T21:21:55.573Z,31.80
2018-03-18T21:24:24.720Z,28.70
2018-03-18T21:26:53.911Z,28.93
2018-03-18T21:29:23.050Z,28.33
2018-03-18T21:31:52.646Z,29.30
2018-03-18T21:34:21.794Z,27.80
2018-03-18T21:36:50.948Z,30.07
2018-03-18T21:39:20.173Z,30.43
2018-03-18T21:41:49.315Z,27.50
2018-03-18T21:44:18.454Z,29.67
2018-03-18T21:46:47.641Z,29.70
2018-03-18T21:49:16.824Z,30.10
2018-03-18T21:51:45.987Z,31.40
2018-03-18T21:54:15.129Z,33.20
2018-03-18T21:56:44.261Z,30.67
2018-03-18T21:59:13.439Z,28.60
2018-03-18T22:01:42.578Z,29.47
2018-03-18T22:04:11.732Z,29.30
2018-03-18T22:06:40.898Z,30.63
2018-03-18T22:09:10.037Z,34.50
2018-03-18T22:14:27.191Z,31.60
2018-03-18T22:16:56.341Z,31.10
2018-03-18T22:19:25.491Z,31.47
2018-03-18T22:21:54.676Z,32.40
2018-03-18T22:24:23.866Z,34.50
2018-03-18T22:26:53.077Z,32.30
2018-03-18T22:29:22.813Z,32.07
2018-03-18T22:31:51.953Z,35.97
2018-03-18T22:34:21.092Z,33.37
2018-03-18T22:36:50.277Z,30.63
2018-03-18T22:39:19.406Z,33.20
2018-03-18T22:41:48.562Z,33.87
2018-03-18T22:44:17.762Z,31.80
2018-03-18T22:46:46.882Z,31.37
2018-03-18T22:49:16.018Z,30.47
2018-03-18T22:51:45.166Z,32.73
2018-03-18T22:54:14.331Z,34.33
2018-03-18T22:56:43.470Z,32.40
2018-03-18T22:59:12.630Z,33.13
2018-03-18T23:01:41.817Z,32.03
2018-03-18T23:04:11.018Z,30.87
2018-03-18T23:06:40.279Z,31.60
2018-03-18T23:09:09.450Z,34.50
2018-03-18T23:11:38.623Z,31.70
2018-03-18T23:14:07.785Z,30.73
2018-03-18T23:16:36.932Z,30.07
2018-03-18T23:19:06.154Z,31.93
2018-03-18T23:21:35.298Z,31.70
2018-03-18T23:24:04.434Z,31.80
2018-03-18T23:26:33.612Z,30.23
2018-03-18T23:29:02.753Z,33.00
2018-03-18T23:31:31.933Z,33.47
2018-03-18T23:34:01.111Z,32.27
2018-03-18T23:36:30.253Z,34.03
2018-03-18T23:38:59.399Z,32.40
2018-03-18T23:41:28.583Z,33.73
2018-03-18T23:43:57.785Z,32.63
2018-03-18T23:46:26.987Z,34.53
2018-03-18T23:48:56.172Z,34.70
2018-03-18T23:51:25.336Z,37.67
2018-03-18T23:53:54.528Z,34.30
2018-03-18T23:56:23.671Z,34.23
2018-03-18T23:58:52.837Z,34.60
